createdAt,value
2017-12-06T00:00:34.812Z,1005.72
2017-12-06T00:01:41.520Z,1005.72
2017-12-06T00:02:48.205Z,1005.78
2017-12-06T00:03:55.397Z,1005.71
2017-12-06T00:05:02.068Z,1005.74
2017-12-06T00:06:08.842Z,1005.72
2017-12-06T00:07:15.548Z,1005.68
2017-12-06T00:08:22.303Z,1005.63
2017-12-06T00:09:29.005Z,1005.67
2017-12-06T00:10:35.689Z,1005.70
2017-12-06T00:11:42.384Z,1005.69
2017-12-06T00:12:49.162Z,1005.63
2017-12-06T00:13:55.912Z,1005.67
2017-12-06T00:15:03.757Z,1005.74
2017-12-06T00:16:10.633Z,1005.75
2017-12-06T00:17:17.320Z,1005.70
2017-12-06T00:18:23.997Z,1005.71
2017-12-06T00:19:30.733Z,1005.71
2017-12-06T00:20:37.417Z,1005.77
2017-12-06T00:21:44.237Z,1005.76
2017-12-06T00:22:50.932Z,1005.79
2017-12-06T00:23:57.677Z,1005.71
2017-12-06T00:25:04.456Z,1005.70
2017-12-06T00:26:11.118Z,1005.71
2017-12-06T00:27:17.893Z,1005.69
2017-12-06T00:28:25.060Z,1005.75
2017-12-06T00:29:31.804Z,1005.63
2017-12-06T00:30:38.573Z,1005.67
2017-12-06T00:31:45.244Z,1005.73
2017-12-06T00:32:52.018Z,1005.75
2017-12-06T00:33:58.742Z,1005.75
2017-12-06T00:35:05.489Z,1005.78
2017-12-06T00:36:12.565Z,1005.70
2017-12-06T00:37:19.233Z,1005.76
2017-12-06T00:38:25.932Z,1005.71
2017-12-06T00:39:32.616Z,1005.66
2017-12-06T00:40:39.404Z,1005.58
2017-12-06T00:41:46.060Z,1005.59
2017-12-06T00:42:53.240Z,1005.68
2017-12-06T00:43:59.909Z,1005.58
2017-12-06T00:45:06.609Z,1005.62
2017-12-06T00:46:13.299Z,1005.59
2017-12-06T00:47:19.961Z,1005.53
2017-12-06T00:48:27.132Z,1005.62
2017-12-06T00:49:33.870Z,1005.60
2017-12-06T00:50:40.560Z,1005.58
2017-12-06T00:51:47.256Z,1005.51
2017-12-06T00:52:53.972Z,1005.65
2017-12-06T00:54:00.708Z,1005.60
2017-12-06T00:55:07.380Z,1005.50
2017-12-06T00:56:14.172Z,1005.60
2017-12-06T00:57:20.835Z,1005.51
2017-12-06T00:58:27.521Z,1005.47
2017-12-06T00:59:34.212Z,1005.54
2017-12-06T01:00:41.460Z,1005.50
2017-12-06T01:01:48.141Z,1005.54
2017-12-06T01:02:54.912Z,1005.51
2017-12-06T01:04:01.581Z,1005.53
2017-12-06T01:05:08.798Z,1005.56
2017-12-06T01:06:15.528Z,1005.62
2017-12-06T01:07:22.244Z,1005.62
2017-12-06T01:08:28.904Z,1005.64
2017-12-06T01:09:35.596Z,1005.63
2017-12-06T01:10:42.364Z,1005.57
2017-12-06T01:11:49.076Z,1005.61
2017-12-06T01:12:55.772Z,1005.59
2017-12-06T01:14:02.592Z,1005.51
2017-12-06T01:15:09.752Z,1005.55
2017-12-06T01:16:16.520Z,1005.58
2017-12-06T01:17:23.209Z,1005.62
2017-12-06T01:18:29.880Z,1005.55
2017-12-06T01:19:36.588Z,1005.56
2017-12-06T01:20:43.266Z,1005.47
2017-12-06T01:21:50.005Z,1005.51
2017-12-06T01:22:56.676Z,1005.53
2017-12-06T01:24:03.440Z,1005.51
2017-12-06T01:25:10.599Z,1005.39
2017-12-06T01:26:17.752Z,1005.42
2017-12-06T01:27:24.465Z,1005.51
2017-12-06T01:28:31.184Z,1005.53
2017-12-06T01:29:37.872Z,1005.40
2017-12-06T01:30:44.575Z,1005.39
2017-12-06T01:31:51.265Z,1005.36
2017-12-06T01:32:58.072Z,1005.35
2017-12-06T01:34:04.744Z,1005.34
2017-12-06T01:35:11.436Z,1005.36
2017-12-06T01:36:18.196Z,1005.38
2017-12-06T01:37:24.901Z,1005.46
2017-12-06T01:38:32.080Z,1005.52
2017-12-06T01:39:38.873Z,1005.50
2017-12-06T01:40:45.541Z,1005.40
2017-12-06T01:41:52.681Z,1005.50
2017-12-06T01:42:59.837Z,1005.52
2017-12-06T01:44:06.689Z,1005.45
2017-12-06T01:45:13.360Z,1005.55
2017-12-06T01:46:20.050Z,1005.36
2017-12-06T01:47:26.698Z,1005.42
2017-12-06T01:48:33.495Z,1005.41
2017-12-06T01:49:40.184Z,1005.48
2017-12-06T01:50:46.864Z,1005.41
2017-12-06T01:51:53.655Z,1005.41
2017-12-06T01:53:00.336Z,1005.34
2017-12-06T01:54:07.037Z,1005.44
2017-12-06T01:55:13.811Z,1005.51
2017-12-06T01:56:20.533Z,1005.51
2017-12-06T01:57:27.244Z,1005.40
2017-12-06T01:58:33.976Z,1005.43
2017-12-06T01:59:40.709Z,1005.47
2017-12-06T02:00:47.608Z,1005.42
2017-12-06T02:01:54.271Z,1005.41
2017-12-06T02:03:00.964Z,1005.44
2017-12-06T02:04:07.680Z,1005.35
2017-12-06T02:05:14.360Z,1005.41
2017-12-06T02:06:21.098Z,1005.36
2017-12-06T02:07:27.826Z,1005.38
2017-12-06T02:08:34.985Z,1005.39
2017-12-06T02:09:41.664Z,1005.34
2017-12-06T02:10:48.345Z,1005.35
2017-12-06T02:11:55.237Z,1005.39
2017-12-06T02:13:02.024Z,1005.27
2017-12-06T02:14:08.716Z,1005.34
2017-12-06T02:15:15.388Z,1005.27
2017-12-06T02:16:22.060Z,1005.36
2017-12-06T02:17:28.779Z,1005.32
2017-12-06T02:18:35.460Z,1005.39
2017-12-06T02:19:42.168Z,1005.35
2017-12-06T02:20:48.870Z,1005.40
2017-12-06T02:21:55.716Z,1005.34
2017-12-06T02:23:02.398Z,1005.36
2017-12-06T02:24:09.131Z,1005.34
2017-12-06T02:25:15.865Z,1005.27
2017-12-06T02:26:22.684Z,1005.33
2017-12-06T02:27:29.428Z,1005.36
2017-12-06T02:28:36.208Z,1005.35
2017-12-06T02:29:42.925Z,1005.23
2017-12-06T02:30:49.748Z,1005.23
2017-12-06T02:31:56.440Z,1005.20
2017-12-06T02:33:03.113Z,1005.29
2017-12-06T02:34:09.964Z,1005.24
2017-12-06T02:35:16.672Z,1005.23
2017-12-06T02:36:23.429Z,1005.21
2017-12-06T02:37:30.107Z,1005.21
2017-12-06T02:38:37.273Z,1005.21
2017-12-06T02:39:44.524Z,1005.24
2017-12-06T02:40:51.362Z,1005.20
2017-12-06T02:42:01.792Z,1005.23
2017-12-06T02:43:08.906Z,1005.15
2017-12-06T02:44:18.408Z,1005.21
2017-12-06T02:45:25.288Z,1005.16
2017-12-06T02:46:31.961Z,1005.25
2017-12-06T02:47:38.681Z,1005.19
2017-12-06T02:48:45.433Z,1005.10
2017-12-06T02:49:52.674Z,1005.18
2017-12-06T02:50:59.373Z,1005.18
2017-12-06T02:52:06.068Z,1005.18
2017-12-06T02:53:12.779Z,1005.14
2017-12-06T02:54:19.472Z,1005.13
2017-12-06T02:55:26.183Z,1005.13
2017-12-06T02:56:32.922Z,1005.15
2017-12-06T02:57:39.621Z,1005.10
2017-12-06T02:58:46.404Z,1005.12
2017-12-06T02:59:53.153Z,1005.10
2017-12-06T03:01:00.016Z,1005.04
2017-12-06T03:02:06.762Z,1005.07
2017-12-06T03:03:13.463Z,1005.10
2017-12-06T03:04:20.222Z,1005.11
2017-12-06T03:05:26.920Z,1004.98
2017-12-06T03:06:33.761Z,1005.05
2017-12-06T03:07:40.561Z,1005.05
2017-12-06T03:08:47.300Z,1004.97
2017-12-06T03:09:54.130Z,1005.02
2017-12-06T03:11:00.873Z,1004.94
2017-12-06T03:12:07.625Z,1005.01
2017-12-06T03:13:14.325Z,1004.95
2017-12-06T03:14:21.061Z,1004.92
2017-12-06T03:15:27.984Z,1004.94
2017-12-06T03:16:34.762Z,1004.91
2017-12-06T03:17:41.472Z,1004.88
2017-12-06T03:18:48.156Z,1004.90
2017-12-06T03:19:54.932Z,1004.94
2017-12-06T03:21:01.612Z,1004.96
2017-12-06T03:22:08.320Z,1004.94
2017-12-06T03:23:15.051Z,1004.90
2017-12-06T03:24:21.756Z,1004.89
2017-12-06T03:25:28.456Z,1004.95
2017-12-06T03:26:35.163Z,1004.84
2017-12-06T03:27:41.932Z,1004.95
2017-12-06T03:28:48.625Z,1004.82
2017-12-06T03:29:55.328Z,1004.89
2017-12-06T03:31:02.058Z,1004.89
2017-12-06T03:32:08.779Z,1004.94
2017-12-06T03:33:15.489Z,1004.86
2017-12-06T03:34:22.251Z,1004.89
2017-12-06T03:35:28.950Z,1004.86
2017-12-06T03:36:35.657Z,1004.89
2017-12-06T03:37:42.362Z,1004.86
2017-12-06T03:38:49.131Z,1004.85
2017-12-06T03:39:55.902Z,1004.79
2017-12-06T03:41:02.596Z,1004.88
2017-12-06T03:42:09.320Z,1004.83
2017-12-06T03:43:16.049Z,1004.78
2017-12-06T03:44:22.751Z,1004.78
2017-12-06T03:45:29.544Z,1004.78
2017-12-06T03:46:36.244Z,1004.80
2017-12-06T03:47:42.993Z,1004.85
2017-12-06T03:48:49.692Z,1004.87
2017-12-06T03:49:56.404Z,1004.82
2017-12-06T03:51:03.276Z,1004.82
2017-12-06T03:52:09.991Z,1004.77
2017-12-06T03:53:16.725Z,1004.72
2017-12-06T03:54:23.423Z,1004.78
2017-12-06T03:55:30.216Z,1004.81
2017-12-06T03:56:36.904Z,1004.70
2017-12-06T03:57:43.604Z,1004.74
2017-12-06T03:58:50.341Z,1004.73
2017-12-06T03:59:57.097Z,1004.70
2017-12-06T04:01:03.885Z,1004.69
2017-12-06T04:02:10.599Z,1004.76
2017-12-06T04:03:17.308Z,1004.69
2017-12-06T04:04:24.052Z,1004.70
2017-12-06T04:05:30.751Z,1004.77
2017-12-06T04:06:37.537Z,1004.68
2017-12-06T04:07:44.250Z,1004.67
2017-12-06T04:08:50.965Z,1004.69
2017-12-06T04:09:57.729Z,1004.69
2017-12-06T04:11:04.564Z,1004.62
2017-12-06T04:12:11.242Z,1004.66
2017-12-06T04:13:17.948Z,1004.65
2017-12-06T04:14:24.652Z,1004.66
2017-12-06T04:15:31.374Z,1004.69
2017-12-06T04:16:38.085Z,1004.70
2017-12-06T04:17:44.911Z,1004.69
2017-12-06T04:18:51.608Z,1004.65
2017-12-06T04:19:58.333Z,1004.63
2017-12-06T04:21:05.072Z,1004.63
2017-12-06T04:22:11.767Z,1004.67
2017-12-06T04:23:18.483Z,1004.67
2017-12-06T04:24:25.289Z,1004.68
2017-12-06T04:25:32.019Z,1004.77
2017-12-06T04:26:38.767Z,1004.71
2017-12-06T04:27:45.485Z,1004.67
2017-12-06T04:28:52.197Z,1004.66
2017-12-06T04:29:58.985Z,1004.68
2017-12-06T04:31:05.693Z,1004.70
2017-12-06T04:32:12.438Z,1004.66
2017-12-06T04:33:19.156Z,1004.70
2017-12-06T04:34:25.864Z,1004.66
2017-12-06T04:35:32.578Z,1004.69
2017-12-06T04:36:39.388Z,1004.73
2017-12-06T04:37:46.135Z,1004.70
2017-12-06T04:38:52.932Z,1004.76
2017-12-06T04:39:59.747Z,1004.70
2017-12-06T04:41:06.721Z,1004.66
2017-12-06T04:42:13.537Z,1004.76
2017-12-06T04:43:20.309Z,1004.68
2017-12-06T04:44:27.052Z,1004.68
2017-12-06T04:45:33.794Z,1004.67
2017-12-06T04:46:40.597Z,1004.67
2017-12-06T04:47:47.332Z,1004.58
2017-12-06T04:48:54.035Z,1004.56
2017-12-06T04:50:00.769Z,1004.62
2017-12-06T04:51:07.879Z,1004.58
2017-12-06T04:52:14.561Z,1004.59
2017-12-06T04:53:21.268Z,1004.62
2017-12-06T04:54:28.060Z,1004.65
2017-12-06T04:55:34.788Z,1004.67
2017-12-06T04:56:41.533Z,1004.61
2017-12-06T04:57:48.241Z,1004.67
2017-12-06T04:58:54.949Z,1004.69
2017-12-06T05:00:01.738Z,1004.68
2017-12-06T05:01:08.487Z,1004.67
2017-12-06T05:02:15.204Z,1004.66
2017-12-06T05:03:21.912Z,1004.68
2017-12-06T05:04:28.641Z,1004.68
2017-12-06T05:05:35.412Z,1004.68
2017-12-06T05:06:42.123Z,1004.62
2017-12-06T05:07:48.844Z,1004.63
2017-12-06T05:08:55.556Z,1004.58
2017-12-06T05:10:02.273Z,1004.59
2017-12-06T05:11:09.088Z,1004.58
2017-12-06T05:12:15.793Z,1004.58
2017-12-06T05:13:22.521Z,1004.59
2017-12-06T05:14:29.257Z,1004.63
2017-12-06T05:15:35.951Z,1004.67
2017-12-06T05:16:42.756Z,1004.59
2017-12-06T05:17:49.469Z,1004.59
2017-12-06T05:18:56.276Z,1004.66
2017-12-06T05:20:02.953Z,1004.61
2017-12-06T05:21:09.684Z,1004.59
2017-12-06T05:22:16.432Z,1004.61
2017-12-06T05:23:23.104Z,1004.65
2017-12-06T05:24:29.923Z,1004.65
2017-12-06T05:25:36.620Z,1004.59
2017-12-06T05:26:43.308Z,1004.59
2017-12-06T05:27:50.121Z,1004.59
2017-12-06T05:28:56.817Z,1004.60
2017-12-06T05:30:03.541Z,1004.64
2017-12-06T05:31:10.247Z,1004.64
2017-12-06T05:32:17.082Z,1004.65
2017-12-06T05:33:23.840Z,1004.68
2017-12-06T05:34:30.566Z,1004.62
2017-12-06T05:35:37.299Z,1004.61
2017-12-06T05:36:44.017Z,1004.60
2017-12-06T05:37:50.752Z,1004.61
2017-12-06T05:38:57.524Z,1004.63
2017-12-06T05:40:04.217Z,1004.60
2017-12-06T05:41:10.944Z,1004.61
2017-12-06T05:42:17.672Z,1004.55
2017-12-06T05:43:24.404Z,1004.49
2017-12-06T05:44:31.227Z,1004.59
2017-12-06T05:45:37.929Z,1004.55
2017-12-06T05:46:44.657Z,1004.58
2017-12-06T05:47:51.375Z,1004.64
2017-12-06T05:48:58.097Z,1004.60
2017-12-06T05:50:04.784Z,1004.51
2017-12-06T05:51:11.571Z,1004.59
2017-12-06T05:52:18.260Z,1004.54
2017-12-06T05:53:24.993Z,1004.60
2017-12-06T05:54:31.715Z,1004.57
2017-12-06T05:55:38.405Z,1004.58
2017-12-06T05:56:45.114Z,1004.52
2017-12-06T05:57:51.889Z,1004.49
2017-12-06T05:58:58.592Z,1004.55
2017-12-06T06:00:05.320Z,1004.62
2017-12-06T06:01:12.016Z,1004.56
2017-12-06T06:02:18.739Z,1004.59
2017-12-06T06:03:25.451Z,1004.58
2017-12-06T06:04:32.241Z,1004.56
2017-12-06T06:05:39.030Z,1004.56
2017-12-06T06:06:45.860Z,1004.64
2017-12-06T06:07:52.605Z,1004.62
2017-12-06T06:08:59.435Z,1004.45
2017-12-06T06:10:06.156Z,1004.57
2017-12-06T06:11:12.899Z,1004.46
2017-12-06T06:12:19.656Z,1004.36
2017-12-06T06:13:26.364Z,1004.47
2017-12-06T06:14:33.146Z,1004.45
2017-12-06T06:15:39.864Z,1004.41
2017-12-06T06:16:46.680Z,1004.36
2017-12-06T06:17:53.419Z,1004.44
2017-12-06T06:19:00.124Z,1004.33
2017-12-06T06:20:06.884Z,1004.36
2017-12-06T06:21:13.601Z,1004.32
2017-12-06T06:22:20.348Z,1004.34
2017-12-06T06:23:27.057Z,1004.37
2017-12-06T06:24:33.825Z,1004.35
2017-12-06T06:25:40.588Z,1004.31
2017-12-06T06:26:47.400Z,1004.33
2017-12-06T06:27:54.100Z,1004.43
2017-12-06T06:29:00.917Z,1004.36
2017-12-06T06:30:07.665Z,1004.33
2017-12-06T06:31:14.462Z,1004.34
2017-12-06T06:32:21.173Z,1004.34
2017-12-06T06:33:27.898Z,1004.38
2017-12-06T06:34:34.624Z,1004.27
2017-12-06T06:35:41.359Z,1004.22
2017-12-06T06:36:48.168Z,1004.29
2017-12-06T06:37:54.909Z,1004.33
2017-12-06T06:39:01.632Z,1004.29
2017-12-06T06:40:08.731Z,1004.25
2017-12-06T06:41:15.483Z,1004.26
2017-12-06T06:42:22.295Z,1004.22
2017-12-06T06:43:29.010Z,1004.27
2017-12-06T06:44:35.748Z,1004.29
2017-12-06T06:45:42.492Z,1004.27
2017-12-06T06:46:49.221Z,1004.22
2017-12-06T06:47:55.999Z,1004.26
2017-12-06T06:49:02.717Z,1004.23
2017-12-06T06:50:09.567Z,1004.22
2017-12-06T06:51:16.313Z,1004.25
2017-12-06T06:52:23.043Z,1004.27
2017-12-06T06:53:29.774Z,1004.24
2017-12-06T06:54:36.512Z,1004.18
2017-12-06T06:55:43.248Z,1004.23
2017-12-06T06:56:50.000Z,1004.20
2017-12-06T06:57:56.768Z,1004.27
2017-12-06T06:59:03.469Z,1004.20
2017-12-06T07:00:10.200Z,1004.19
2017-12-06T07:01:16.953Z,1004.24
2017-12-06T07:02:23.748Z,1004.17
2017-12-06T07:03:30.475Z,1004.14
2017-12-06T07:04:37.208Z,1004.17
2017-12-06T07:05:43.928Z,1004.26
2017-12-06T07:06:50.667Z,1004.18
2017-12-06T07:07:57.375Z,1004.27
2017-12-06T07:09:04.173Z,1004.29
2017-12-06T07:10:10.904Z,1004.19
2017-12-06T07:11:17.636Z,1004.28
2017-12-06T07:12:24.444Z,1004.28
2017-12-06T07:13:31.395Z,1004.28
2017-12-06T07:14:38.075Z,1004.25
2017-12-06T07:15:44.780Z,1004.24
2017-12-06T07:16:51.511Z,1004.24
2017-12-06T07:17:58.332Z,1004.26
2017-12-06T07:19:05.052Z,1004.25
2017-12-06T07:20:11.777Z,1004.29
2017-12-06T07:21:18.496Z,1004.31
2017-12-06T07:22:25.228Z,1004.25
2017-12-06T07:23:32.028Z,1004.33
2017-12-06T07:24:38.716Z,1004.29
2017-12-06T07:25:45.408Z,1004.33
2017-12-06T07:26:52.144Z,1004.33
2017-12-06T07:27:58.861Z,1004.28
2017-12-06T07:29:05.676Z,1004.33
2017-12-06T07:30:12.401Z,1004.26
2017-12-06T07:31:19.108Z,1004.21
2017-12-06T07:32:25.900Z,1004.28
2017-12-06T07:33:32.719Z,1004.21
2017-12-06T07:34:39.425Z,1004.23
2017-12-06T07:35:46.136Z,1004.26
2017-12-06T07:36:52.893Z,1004.26
2017-12-06T07:37:59.797Z,1004.24
2017-12-06T07:39:06.544Z,1004.18
2017-12-06T07:40:13.341Z,1004.23
2017-12-06T07:41:20.056Z,1004.25
2017-12-06T07:42:26.838Z,1004.25
2017-12-06T07:43:33.572Z,1004.25
2017-12-06T07:44:40.302Z,1004.20
2017-12-06T07:45:47.065Z,1004.33
2017-12-06T07:46:53.763Z,1004.27
2017-12-06T07:48:00.561Z,1004.28
2017-12-06T07:49:07.290Z,1004.22
2017-12-06T07:50:14.072Z,1004.25
2017-12-06T07:51:20.781Z,1004.22
2017-12-06T07:52:27.468Z,1004.18
2017-12-06T07:53:34.236Z,1004.17
2017-12-06T07:54:40.916Z,1004.25
2017-12-06T07:55:47.631Z,1004.23
2017-12-06T07:56:54.320Z,1004.18
2017-12-06T07:58:01.094Z,1004.22
2017-12-06T07:59:08.250Z,1004.24
2017-12-06T08:00:15.061Z,1004.25
2017-12-06T08:01:21.740Z,1004.25
2017-12-06T08:02:28.433Z,1004.27
2017-12-06T08:03:35.153Z,1004.30
2017-12-06T08:04:41.883Z,1004.28
2017-12-06T08:05:48.581Z,1004.38
2017-12-06T08:06:55.368Z,1004.23
2017-12-06T08:08:02.084Z,1004.27
2017-12-06T08:09:08.797Z,1004.27
2017-12-06T08:10:15.516Z,1004.24
2017-12-06T08:11:22.233Z,1004.31
2017-12-06T08:12:28.980Z,1004.25
2017-12-06T08:13:36.172Z,1004.30
2017-12-06T08:14:42.872Z,1004.27
2017-12-06T08:15:49.572Z,1004.33
2017-12-06T08:16:56.368Z,1004.27
2017-12-06T08:18:03.189Z,1004.28
2017-12-06T08:19:09.872Z,1004.27
2017-12-06T08:20:16.592Z,1004.30
2017-12-06T08:21:23.300Z,1004.26
2017-12-06T08:22:30.022Z,1004.34
2017-12-06T08:23:36.737Z,1004.31
2017-12-06T08:24:43.616Z,1004.30
2017-12-06T08:25:50.375Z,1004.31
2017-12-06T08:26:57.072Z,1004.30
2017-12-06T08:28:03.776Z,1004.27
2017-12-06T08:29:10.629Z,1004.27
2017-12-06T08:30:17.361Z,1004.25
2017-12-06T08:31:24.144Z,1004.28
2017-12-06T08:32:30.869Z,1004.32
2017-12-06T08:33:37.728Z,1004.22
2017-12-06T08:34:44.483Z,1004.25
2017-12-06T08:35:51.213Z,1004.30
2017-12-06T08:36:57.944Z,1004.31
2017-12-06T08:38:04.806Z,1004.30
2017-12-06T08:39:11.608Z,1004.30
2017-12-06T08:40:18.400Z,1004.30
2017-12-06T08:41:25.225Z,1004.30
2017-12-06T08:42:31.953Z,1004.24
2017-12-06T08:43:38.723Z,1004.30
2017-12-06T08:44:45.480Z,1004.25
2017-12-06T08:45:52.326Z,1004.19
2017-12-06T08:46:59.076Z,1004.23
2017-12-06T08:48:05.917Z,1004.27
2017-12-06T08:49:12.733Z,1004.23
2017-12-06T08:50:19.481Z,1004.23
2017-12-06T08:51:26.276Z,1004.23
2017-12-06T08:52:33.016Z,1004.28
2017-12-06T08:53:39.793Z,1004.28
2017-12-06T08:54:46.526Z,1004.23
2017-12-06T08:55:53.300Z,1004.20
2017-12-06T08:57:00.021Z,1004.33
2017-12-06T08:58:07.161Z,1004.21
2017-12-06T08:59:13.689Z,1004.24
2017-12-06T09:00:20.460Z,1004.26
2017-12-06T09:01:27.268Z,1004.21
2017-12-06T09:02:34.060Z,1004.16
2017-12-06T09:03:40.829Z,1004.14
2017-12-06T09:04:47.647Z,1004.19
2017-12-06T09:05:54.515Z,1004.18
2017-12-06T09:07:01.289Z,1004.11
2017-12-06T09:08:08.032Z,1004.20
2017-12-06T09:09:14.762Z,1004.19
2017-12-06T09:10:21.498Z,1004.16
2017-12-06T09:11:28.469Z,1004.18
2017-12-06T09:12:35.229Z,1004.25
2017-12-06T09:13:42.028Z,1004.15
2017-12-06T09:14:48.797Z,1004.15
2017-12-06T09:15:55.545Z,1004.06
2017-12-06T09:17:02.301Z,1004.09
2017-12-06T09:18:09.356Z,1004.06
2017-12-06T09:19:16.157Z,1004.07
2017-12-06T09:20:22.872Z,1004.07
2017-12-06T09:21:29.735Z,1004.09
2017-12-06T09:22:36.524Z,1004.06
2017-12-06T09:23:43.441Z,1004.12
2017-12-06T09:24:50.180Z,1004.07
2017-12-06T09:25:56.978Z,1004.11
2017-12-06T09:27:03.709Z,1004.13
2017-12-06T09:28:10.509Z,1004.12
2017-12-06T09:29:17.424Z,1004.10
2017-12-06T09:30:24.261Z,1004.08
2017-12-06T09:31:31.021Z,1004.12
2017-12-06T09:32:37.794Z,1004.09
2017-12-06T09:33:44.520Z,1004.07
2017-12-06T09:34:51.293Z,1004.06
2017-12-06T09:35:58.036Z,1004.07
2017-12-06T09:37:04.777Z,1004.04
2017-12-06T09:38:11.532Z,1004.05
2017-12-06T09:39:18.349Z,1004.07
2017-12-06T09:40:25.053Z,1004.06
2017-12-06T09:41:31.916Z,1004.01
2017-12-06T09:42:38.748Z,1004.07
2017-12-06T09:43:45.469Z,1004.05
2017-12-06T09:44:52.264Z,1004.03
2017-12-06T09:45:59.244Z,1004.07
2017-12-06T09:47:11.232Z,1004.08
2017-12-06T09:48:12.965Z,1004.09
2017-12-06T09:49:19.728Z,1004.08
2017-12-06T09:50:26.447Z,1004.13
2017-12-06T09:51:33.173Z,1004.17
2017-12-06T09:52:39.948Z,1004.04
2017-12-06T09:53:46.684Z,1004.08
2017-12-06T09:54:53.438Z,1004.12
2017-12-06T09:56:00.171Z,1004.14
2017-12-06T09:57:06.980Z,1004.16
2017-12-06T09:58:13.694Z,1004.15
2017-12-06T09:59:20.429Z,1004.13
2017-12-06T10:00:27.275Z,1004.14
2017-12-06T10:01:34.038Z,1004.14
2017-12-06T10:02:40.761Z,1004.16
2017-12-06T10:03:47.525Z,1004.11
2017-12-06T10:04:54.248Z,1004.19
2017-12-06T10:06:01.036Z,1004.19
2017-12-06T10:07:07.777Z,1004.20
2017-12-06T10:08:14.496Z,1004.08
2017-12-06T10:09:21.248Z,1004.13
2017-12-06T10:10:28.085Z,1004.08
2017-12-06T10:11:34.797Z,1004.13
2017-12-06T10:12:41.648Z,1004.12
2017-12-06T10:13:48.710Z,1004.10
2017-12-06T10:14:55.432Z,1004.12
2017-12-06T10:16:02.137Z,1004.13
2017-12-06T10:17:08.920Z,1004.09
2017-12-06T10:18:15.640Z,1004.04
2017-12-06T10:19:22.396Z,1004.06
2017-12-06T10:20:29.125Z,1004.00
2017-12-06T10:21:35.888Z,1004.04
2017-12-06T10:22:42.625Z,1003.99
2017-12-06T10:23:49.378Z,1004.03
2017-12-06T10:24:56.242Z,1004.04
2017-12-06T10:26:03.021Z,1004.09
2017-12-06T10:27:09.760Z,1004.05
2017-12-06T10:28:16.523Z,1004.00
2017-12-06T10:29:23.282Z,1004.10
2017-12-06T10:30:30.001Z,1004.05
2017-12-06T10:31:36.741Z,1004.02
2017-12-06T10:32:43.449Z,1004.12
2017-12-06T10:33:50.151Z,1004.04
2017-12-06T10:34:56.938Z,1003.91
2017-12-06T10:36:03.683Z,1003.98
2017-12-06T10:37:10.500Z,1004.10
2017-12-06T10:38:17.308Z,1003.96
2017-12-06T10:39:24.075Z,1004.03
2017-12-06T10:40:30.704Z,1003.98
2017-12-06T10:41:37.532Z,1004.01
2017-12-06T10:42:44.344Z,1003.95
2017-12-06T10:43:51.064Z,1003.99
2017-12-06T10:44:58.093Z,1004.00
2017-12-06T10:46:04.800Z,1004.03
2017-12-06T10:47:11.689Z,1003.98
2017-12-06T10:48:18.460Z,1003.92
2017-12-06T10:49:25.164Z,1004.00
2017-12-06T10:50:31.879Z,1003.95
2017-12-06T10:51:38.596Z,1003.90
2017-12-06T10:52:45.323Z,1003.92
2017-12-06T10:53:52.083Z,1003.85
2017-12-06T10:54:58.781Z,1003.89
2017-12-06T10:56:05.512Z,1003.92
2017-12-06T10:57:12.200Z,1003.95
2017-12-06T10:58:18.907Z,1003.82
2017-12-06T10:59:25.696Z,1003.81
2017-12-06T11:00:32.415Z,1003.79
2017-12-06T11:01:39.444Z,1003.89
2017-12-06T11:02:46.185Z,1003.85
2017-12-06T11:03:52.907Z,1003.82
2017-12-06T11:04:59.637Z,1003.81
2017-12-06T11:06:06.340Z,1003.77
2017-12-06T11:07:13.095Z,1003.83
2017-12-06T11:08:19.825Z,1003.80
2017-12-06T11:09:26.587Z,1003.77
2017-12-06T11:10:33.507Z,1003.72
2017-12-06T11:11:40.282Z,1003.74
2017-12-06T11:12:46.967Z,1003.67
2017-12-06T11:13:53.716Z,1003.74
2017-12-06T11:15:00.532Z,1003.75
2017-12-06T11:16:07.249Z,1003.77
2017-12-06T11:17:13.956Z,1003.75
2017-12-06T11:18:20.692Z,1003.70
2017-12-06T11:19:27.392Z,1003.69
2017-12-06T11:20:34.077Z,1003.64
2017-12-06T11:21:40.828Z,1003.67
2017-12-06T11:22:47.549Z,1003.68
2017-12-06T11:23:54.287Z,1003.63
2017-12-06T11:25:01.165Z,1003.62
2017-12-06T11:26:08.085Z,1003.58
2017-12-06T11:27:14.819Z,1003.57
2017-12-06T11:28:21.623Z,1003.55
2017-12-06T11:29:28.324Z,1003.60
2017-12-06T11:30:35.041Z,1003.60
2017-12-06T11:31:41.773Z,1003.54
2017-12-06T11:32:48.473Z,1003.51
2017-12-06T11:33:55.168Z,1003.65
2017-12-06T11:35:01.956Z,1003.51
2017-12-06T11:36:08.669Z,1003.53
2017-12-06T11:37:15.400Z,1003.49
2017-12-06T11:38:22.104Z,1003.47
2017-12-06T11:39:28.842Z,1003.48
2017-12-06T11:40:35.616Z,1003.45
2017-12-06T11:41:42.295Z,1003.49
2017-12-06T11:42:48.989Z,1003.47
2017-12-06T11:43:55.680Z,1003.46
2017-12-06T11:45:02.417Z,1003.41
2017-12-06T11:46:09.132Z,1003.43
2017-12-06T11:47:15.899Z,1003.35
2017-12-06T11:48:22.620Z,1003.41
2017-12-06T11:49:29.344Z,1003.30
2017-12-06T11:50:36.117Z,1003.41
2017-12-06T11:51:42.901Z,1003.36
2017-12-06T11:52:49.642Z,1003.36
2017-12-06T11:53:56.634Z,1003.34
2017-12-06T11:55:03.430Z,1003.41
2017-12-06T11:56:10.268Z,1003.38
2017-12-06T11:57:17.081Z,1003.42
2017-12-06T11:58:23.807Z,1003.36
2017-12-06T11:59:30.536Z,1003.30
2017-12-06T12:00:37.272Z,1003.37
2017-12-06T12:01:44.122Z,1003.35
2017-12-06T12:02:50.872Z,1003.38
2017-12-06T12:03:57.623Z,1003.28
2017-12-06T12:05:04.465Z,1003.33
2017-12-06T12:06:11.192Z,1003.32
2017-12-06T12:07:17.900Z,1003.25
2017-12-06T12:08:24.616Z,1003.27
2017-12-06T12:09:31.615Z,1003.19
2017-12-06T12:10:38.368Z,1003.22
2017-12-06T12:11:45.106Z,1003.17
2017-12-06T12:12:51.832Z,1003.18
2017-12-06T12:13:58.584Z,1003.22
2017-12-06T12:15:05.300Z,1003.23
2017-12-06T12:16:12.076Z,1003.17
2017-12-06T12:17:18.928Z,1003.18
2017-12-06T12:18:25.632Z,1003.22
2017-12-06T12:19:32.361Z,1003.21
2017-12-06T12:20:39.068Z,1003.19
2017-12-06T12:21:45.900Z,1003.22
2017-12-06T12:22:52.628Z,1003.19
2017-12-06T12:23:59.408Z,1003.15
2017-12-06T12:25:06.112Z,1003.19
2017-12-06T12:26:12.932Z,1003.15
2017-12-06T12:27:19.639Z,1003.15
2017-12-06T12:28:26.357Z,1003.15
2017-12-06T12:29:33.115Z,1003.06
2017-12-06T12:30:39.847Z,1003.13
2017-12-06T12:31:46.662Z,1003.09
2017-12-06T12:32:53.426Z,1003.02
2017-12-06T12:34:00.144Z,1002.98
2017-12-06T12:35:06.834Z,1002.99
2017-12-06T12:36:13.566Z,1002.95
2017-12-06T12:37:20.297Z,1003.00
2017-12-06T12:38:27.098Z,1003.00
2017-12-06T12:39:34.153Z,1002.96
2017-12-06T12:40:40.973Z,1002.92
2017-12-06T12:41:47.886Z,1002.95
2017-12-06T12:42:54.697Z,1002.95
2017-12-06T12:44:01.737Z,1002.90
2017-12-06T12:45:08.572Z,1002.86
2017-12-06T12:46:15.477Z,1002.76
2017-12-06T12:47:22.275Z,1002.72
2017-12-06T12:48:29.164Z,1002.73
2017-12-06T12:49:35.989Z,1002.72
2017-12-06T12:50:42.792Z,1002.64
2017-12-06T12:51:49.623Z,1002.74
2017-12-06T12:52:56.441Z,1002.62
2017-12-06T12:54:03.296Z,1002.73
2017-12-06T12:55:10.131Z,1002.72
2017-12-06T12:56:17.049Z,1002.69
2017-12-06T12:57:23.873Z,1002.72
2017-12-06T12:58:30.780Z,1002.75
2017-12-06T12:59:37.624Z,1002.67
2017-12-06T13:00:44.547Z,1002.71
2017-12-06T13:01:51.500Z,1002.68
2017-12-06T13:02:58.301Z,1002.70
2017-12-06T13:04:05.205Z,1002.64
2017-12-06T13:05:12.118Z,1002.64
2017-12-06T13:06:18.989Z,1002.64
2017-12-06T13:07:25.848Z,1002.68
2017-12-06T13:08:32.650Z,1002.63
2017-12-06T13:09:39.485Z,1002.56
2017-12-06T13:10:46.334Z,1002.61
2017-12-06T13:11:53.272Z,1002.60
2017-12-06T13:13:00.085Z,1002.65
2017-12-06T13:14:06.909Z,1002.56
2017-12-06T13:15:13.764Z,1002.52
2017-12-06T13:16:20.595Z,1002.57
2017-12-06T13:17:27.504Z,1002.52
2017-12-06T13:18:34.337Z,1002.53
2017-12-06T13:19:41.391Z,1002.44
2017-12-06T13:20:48.260Z,1002.55
2017-12-06T13:21:55.132Z,1002.45
2017-12-06T13:23:01.969Z,1002.50
2017-12-06T13:24:08.928Z,1002.47
2017-12-06T13:25:15.793Z,1002.36
2017-12-06T13:26:22.648Z,1002.39
2017-12-06T13:27:29.537Z,1002.32